EST,Max TemperatureF,Mean TemperatureF,Min TemperatureF,Max Dew PointF,MeanDew PointF,Min DewpointF,Max Humidity, Mean Humidity, Min Humidity, Max Sea Level PressureIn, Mean Sea Level PressureIn, Min Sea Level PressureIn, Max VisibilityMiles, Mean VisibilityMiles, Min VisibilityMiles, Max Wind SpeedMPH, Mean Wind SpeedMPH, Max Gust SpeedMPH,PrecipitationIn, CloudCover, Events, WindDirDegrees
2010-11-1,48,42,35,29,27,26,72,59,43,30.46,30.34,30.19,10,10,10,12,7,18,0.00,1,,3
2010-11-2,51,39,28,30,27,25,88,67,39,30.53,30.44,30.35,10,10,10,6,3,,0.00,0,,309
2010-11-3,54,42,30,41,34,27,92,74,50,30.33,30.14,29.93,10,9,7,10,2,16,0.00,2,,146
2010-11-4,46,45,44,46,44,41,100,93,86,29.91,29.64,29.46,10,5,2,14,6,21,1.10,8,Rain,18
2010-11-5,54,46,37,41,38,33,89,76,56,29.93,29.61,29.45,10,10,10,17,8,22,0.00,6,,289
2010-11-6,48,40,32,34,31,27,92,71,50,30.31,30.14,29.94,10,10,10,14,7,18,0.00,1,,326
2010-11-7,48,39,30,30,28,26,82,65,44,30.39,30.27,30.09,10,10,10,17,7,26,0.00,0,,318
2010-11-8,52,43,34,32,29,25,70,55,43,30.04,29.85,29.74,10,10,10,22,12,32,0.00,1,,305
2010-11-9,54,48,41,41,38,32,86,69,59,30.01,29.95,29.86,10,10,10,15,9,20,0.00,2,,333
2010-11-10,62,52,42,41,39,33,87,67,44,30.25,30.11,30.03,10,10,10,13,7,,0.00,2,,336
2010-11-11,57,46,34,35,29,24,85,57,28,30.44,30.38,30.26,10,10,10,12,3,17,0.00,0,,335
2010-11-12,62,45,28,34,24,16,88,53,18,30.46,30.39,30.32,10,10,8,7,4,,0.00,0,,290
2010-11-13,62,46,30,35,30,25,79,60,32,30.30,30.20,30.12,10,10,8,5,1,,0.00,0,,265
2010-11-14,61,46,30,42,34,28,93,72,36,30.12,30.06,30.01,10,7,2,12,2,,0.00,0,,117
2010-11-15,53,48,44,47,45,43,100,87,72,30.04,30.01,29.99,9,6,2,5,3,,0.00,6,,95
2010-11-16,61,53,46,59,49,45,100,94,86,30.03,29.90,29.57,10,4,1,17,5,29,0.42,8,Rain,114
2010-11-17,62,54,43,59,44,33,94,71,45,30.03,29.68,29.46,10,9,2,25,14,43,0.29,5,Rain-Thunderstorm,246
2010-11-18,54,46,37,39,36,33,83,72,57,30.16,30.10,30.04,10,9,6,15,7,,0.00,2,Rain,279
2010-11-19,46,40,33,34,30,27,86,69,50,30.30,30.24,30.17,10,10,10,12,5,,0.00,3,,292
2010-11-20,52,41,30,40,33,27,88,75,59,30.34,30.21,30.14,10,9,6,12,4,,0.00,0,,283
2010-11-21,50,42,33,39,33,29,85,72,52,30.50,30.42,30.36,10,10,6,8,3,,0.00,2,,101
2010-11-22,57,50,42,49,44,37,100,89,72,30.41,30.27,30.09,10,6,0,8,3,,0.00,5,Fog,124
2010-11-23,57,47,37,53,43,26,100,88,42,30.08,29.98,29.87,10,4,0,17,4,25,0.01,1,Fog-Rain,44
2010-11-24,46,40,34,28,25,22,65,53,39,30.27,30.22,30.07,10,10,10,17,11,26,0.00,1,,313
2010-11-25,41,38,36,40,33,23,96,83,53,30.26,30.04,29.74,10,8,4,9,4,,0.21,8,Rain,106
2010-11-26,46,40,30,45,37,20,100,81,51,29.74,29.68,29.61,10,6,2,17,7,22,0.02,5,,296
2010-11-27,39,34,30,25,21,18,67,57,47,30.13,29.90,29.73,10,10,10,25,13,33,0.00,6,,274
2010-11-28,45,36,27,27,25,22,85,68,46,30.46,30.34,30.15,10,10,8,8,5,,0.00,0,,274
2010-11-29,46,34,23,35,28,21,92,75,51,30.56,30.48,30.41,10,9,6,9,4,,0.00,1,,115
2010-11-30,57,49,41,55,47,36,94,87,77,30.40,30.20,29.94,10,9,4,20,8,29,0.25,8,Rain,119